Etusivu
METAR-TAF:

METAR-TAF

Lentoasemat :

Öljynporauslautta

P11-b, Alankomaat

Leveyspiiri: 52-21-36N, Pituuspiiri: 3-20-30E, korkeus merenpinnasta: 24 m

Tämänhetkinen sää

Tämä raportti tehtiin 22 minuuttia sitten, kello 05.25 UTC
Tuuli 30 kn lännestä, vaihdellen lounaan ja pohjoisen/luoteen välillä
Lämpötila 7°C
Kosteus 70%
Ilmanpaine 1020 hPa
Näkyvyys 10 km tai enemmän

METAR: EHPG 210525Z AUTO 27030KT 220V330 9999 NSC 07/02 Q1020

Aika: 06:47 (05:47 UTC)


TAF: puuttuu

Säähavainnot ja -ennusteet yli 4000 lentoasemalta (METAR- ja TAF-raportit).

Käytössä olevat sääasemat on merkitty karttaan keltaisilla ja punaisilla pisteillä.

Aseta hiiri pisteen päälle nähdäksesi sääaseman nimen.

Klikkaa sitten nähdäksesi säähavainnot ja -ennusteet.

Kartan vaihtaminen: klikkaa mustalla rastilla varustettuja vihreitä pisteitä, niin voit zoomata sisään; viivalla varustettua vihreää pistettä, niin voit zoomata ulos tai vihreitä nuolia, niin pääset viereisille kartoille.


METAR-TAF: